sensor_id;sensor_type;location;lat;lon;timestamp;temperature;humidity
1956;DHT22;978;48.314;11.562;2023-03-21T00:02:14;20.10;64.10
1956;DHT22;978;48.314;11.562;2023-03-21T00:04:43;20.20;64.10
1956;DHT22;978;48.314;11.562;2023-03-21T00:07:10;20.10;64.10
1956;DHT22;978;48.314;11.562;2023-03-21T00:09:36;20.10;64.00
1956;DHT22;978;48.314;11.562;2023-03-21T00:12:03;20.20;64.00
1956;DHT22;978;48.314;11.562;2023-03-21T00:14:31;20.10;64.00
1956;DHT22;978;48.314;11.562;2023-03-21T00:16:59;20.10;64.00
1956;DHT22;978;48.314;11.562;2023-03-21T00:19:25;20.20;64.00
1956;DHT22;978;48.314;11.562;2023-03-21T00:21:55;20.10;63.90
1956;DHT22;978;48.314;11.562;2023-03-21T00:24:22;20.10;64.00
1956;DHT22;978;48.314;11.562;2023-03-21T00:26:48;20.20;64.00
1956;DHT22;978;48.314;11.562;2023-03-21T00:29:15;20.10;63.90
1956;DHT22;978;48.314;11.562;2023-03-21T00:31:42;20.20;64.00
1956;DHT22;978;48.314;11.562;2023-03-21T00:34:09;20.20;63.90
1956;DHT22;978;48.314;11.562;2023-03-21T00:36:36;20.10;63.90
1956;DHT22;978;48.314;11.562;2023-03-21T00:39:04;20.20;63.90
1956;DHT22;978;48.314;11.562;2023-03-21T00:41:31;20.20;63.90
1956;DHT22;978;48.314;11.562;2023-03-21T00:43:58;20.20;63.90
1956;DHT22;978;48.314;11.562;2023-03-21T00:46:25;20.10;63.90
1956;DHT22;978;48.314;11.562;2023-03-21T00:48:51;20.20;63.90
1956;DHT22;978;48.314;11.562;2023-03-21T00:51:20;20.10;63.80
1956;DHT22;978;48.314;11.562;2023-03-21T00:53:52;20.10;63.80
1956;DHT22;978;48.314;11.562;2023-03-21T00:56:20;20.10;63.80
1956;DHT22;978;48.314;11.562;2023-03-21T00:58:46;20.10;63.80
1956;DHT22;978;48.314;11.562;2023-03-21T01:01:13;20.10;63.80
1956;DHT22;978;48.314;11.562;2023-03-21T01:03:40;20.20;63.80
1956;DHT22;978;48.314;11.562;2023-03-21T01:06:16;20.10;63.80
1956;DHT22;978;48.314;11.562;2023-03-21T01:08:44;20.10;63.80
1956;DHT22;978;48.314;11.562;2023-03-21T01:11:13;20.10;63.80
1956;DHT22;978;48.314;11.562;2023-03-21T01:13:42;20.10;63.70
1956;DHT22;978;48.314;11.562;2023-03-21T01:16:10;20.10;63.70
1956;DHT22;978;48.314;11.562;2023-03-21T01:18:38;20.20;63.80
1956;DHT22;978;48.314;11.562;2023-03-21T01:21:08;20.10;63.70
1956;DHT22;978;48.314;11.562;2023-03-21T01:23:35;20.20;63.80
1956;DHT22;978;48.314;11.562;2023-03-21T01:26:02;20.10;63.70
1956;DHT22;978;48.314;11.562;2023-03-21T01:28:30;20.10;63.70
1956;DHT22;978;48.314;11.562;2023-03-21T01:31:00;20.20;63.70
1956;DHT22;978;48.314;11.562;2023-03-21T01:33:27;20.20;63.70
1956;DHT22;978;48.314;11.562;2023-03-21T01:35:55;20.10;63.70
1956;DHT22;978;48.314;11.562;2023-03-21T01:38:23;20.10;63.70
1956;DHT22;978;48.314;11.562;2023-03-21T01:40:50;20.10;63.60
1956;DHT22;978;48.314;11.562;2023-03-21T01:43:28;20.20;63.70
1956;DHT22;978;48.314;11.562;2023-03-21T01:49:14;20.10;64.20
1956;DHT22;978;48.314;11.562;2023-03-21T01:51:44;20.20;63.60
1956;DHT22;978;48.314;11.562;2023-03-21T01:54:16;20.10;63.60
1956;DHT22;978;48.314;11.562;2023-03-21T01:56:48;20.20;63.60
1956;DHT22;978;48.314;11.562;2023-03-21T01:59:19;20.20;63.60
1956;DHT22;978;48.314;11.562;2023-03-21T02:01:49;20.10;63.60
1956;DHT22;978;48.314;11.562;2023-03-21T02:04:17;20.10;63.60
1956;DHT22;978;48.314;11.562;2023-03-21T02:06:50;20.10;63.60
1956;DHT22;978;48.314;11.562;2023-03-21T02:09:22;20.10;63.60
1956;DHT22;978;48.314;11.562;2023-03-21T02:11:49;20.10;63.60
1956;DHT22;978;48.314;11.562;2023-03-21T02:14:18;20.20;63.70
1956;DHT22;978;48.314;11.562;2023-03-21T02:16:51;20.10;63.60
1956;DHT22;978;48.314;11.562;2023-03-21T02:22:37;20.20;63.70
1956;DHT22;978;48.314;11.562;2023-03-21T02:28:18;20.10;63.70
1956;DHT22;978;48.314;11.562;2023-03-21T02:31:12;20.10;63.70
1956;DHT22;978;48.314;11.562;2023-03-21T02:34:18;20.20;63.70
1956;DHT22;978;48.314;11.562;2023-03-21T02:37:05;20.10;63.70
1956;DHT22;978;48.314;11.562;2023-03-21T02:39:41;20.10;63.70
1956;DHT22;978;48.314;11.562;2023-03-21T02:42:16;20.10;63.60
1956;DHT22;978;48.314;11.562;2023-03-21T02:44:48;20.10;63.70
1956;DHT22;978;48.314;11.562;2023-03-21T02:47:20;20.20;63.70
1956;DHT22;978;48.314;11.562;2023-03-21T02:49:51;20.10;63.70
1956;DHT22;978;48.314;11.562;2023-03-21T02:52:25;20.20;63.70
1956;DHT22;978;48.314;11.562;2023-03-21T02:54:54;20.20;63.70
1956;DHT22;978;48.314;11.562;2023-03-21T02:57:22;20.10;63.60
1956;DHT22;978;48.314;11.562;2023-03-21T02:59:49;20.10;63.70
1956;DHT22;978;48.314;11.562;2023-03-21T03:02:20;20.10;63.70
1956;DHT22;978;48.314;11.562;2023-03-21T03:04:48;20.10;63.60
1956;DHT22;978;48.314;11.562;2023-03-21T03:07:31;20.10;63.70
1956;DHT22;978;48.314;11.562;2023-03-21T03:10:10;20.10;63.60
1956;DHT22;978;48.314;11.562;2023-03-21T03:12:47;20.10;63.70
1956;DHT22;978;48.314;11.562;2023-03-21T03:15:24;20.10;63.60
1956;DHT22;978;48.314;11.562;2023-03-21T03:17:59;20.20;63.70
1956;DHT22;978;48.314;11.562;2023-03-21T03:20:32;20.10;63.60
1956;DHT22;978;48.314;11.562;2023-03-21T03:23:10;20.10;63.60
1956;DHT22;978;48.314;11.562;2023-03-21T03:25:41;20.10;63.60
1956;DHT22;978;48.314;11.562;2023-03-21T03:28:12;20.10;63.60
1956;DHT22;978;48.314;11.562;2023-03-21T03:30:40;20.10;63.60
1956;DHT22;978;48.314;11.562;2023-03-21T03:33:08;20.10;63.60
1956;DHT22;978;48.314;11.562;2023-03-21T03:35:35;20.10;63.60
1956;DHT22;978;48.314;11.562;2023-03-21T03:38:05;20.10;63.70
1956;DHT22;978;48.314;11.562;2023-03-21T03:40:38;20.10;63.60
1956;DHT22;978;48.314;11.562;2023-03-21T03:43:09;20.10;63.60
1956;DHT22;978;48.314;11.562;2023-03-21T03:45:42;20.20;63.70
1956;DHT22;978;48.314;11.562;2023-03-21T03:48:15;20.10;63.60
1956;DHT22;978;48.314;11.562;2023-03-21T03:50:48;20.10;63.60
1956;DHT22;978;48.314;11.562;2023-03-21T03:53:20;20.10;63.60
1956;DHT22;978;48.314;11.562;2023-03-21T03:55:49;20.10;63.60
1956;DHT22;978;48.314;11.562;2023-03-21T03:58:16;20.20;63.70
1956;DHT22;978;48.314;11.562;2023-03-21T04:00:44;20.10;63.60
1956;DHT22;978;48.314;11.562;2023-03-21T04:03:11;20.10;63.60
1956;DHT22;978;48.314;11.562;2023-03-21T04:05:39;20.10;63.60
1956;DHT22;978;48.314;11.562;2023-03-21T04:08:06;20.10;63.60
1956;DHT22;978;48.314;11.562;2023-03-21T04:10:34;20.10;63.60
1956;DHT22;978;48.314;11.562;2023-03-21T04:13:01;20.20;63.70
1956;DHT22;978;48.314;11.562;2023-03-21T04:15:28;20.10;63.70
1956;DHT22;978;48.314;11.562;2023-03-21T04:17:54;20.10;63.60
1956;DHT22;978;48.314;11.562;2023-03-21T04:20:22;20.10;63.70
1956;DHT22;978;48.314;11.562;2023-03-21T04:22:48;20.10;63.60
1956;DHT22;978;48.314;11.562;2023-03-21T04:25:15;20.10;63.60
1956;DHT22;978;48.314;11.562;2023-03-21T04:27:44;20.10;63.60
1956;DHT22;978;48.314;11.562;2023-03-21T04:30:11;20.10;63.60
1956;DHT22;978;48.314;11.562;2023-03-21T04:32:38;20.10;63.60
1956;DHT22;978;48.314;11.562;2023-03-21T04:35:06;20.10;63.60
1956;DHT22;978;48.314;11.562;2023-03-21T04:37:34;20.10;63.60
1956;DHT22;978;48.314;11.562;2023-03-21T04:40:01;20.10;63.60
1956;DHT22;978;48.314;11.562;2023-03-21T04:42:31;20.10;63.70
1956;DHT22;978;48.314;11.562;2023-03-21T04:44:59;20.10;63.60
1956;DHT22;978;48.314;11.562;2023-03-21T04:47:26;20.10;63.60
1956;DHT22;978;48.314;11.562;2023-03-21T04:49:53;20.20;63.70
1956;DHT22;978;48.314;11.562;2023-03-21T04:52:21;20.10;63.60
1956;DHT22;978;48.314;11.562;2023-03-21T04:54:48;20.10;63.60
1956;DHT22;978;48.314;11.562;2023-03-21T04:57:15;20.20;63.70
1956;DHT22;978;48.314;11.562;2023-03-21T04:59:42;20.10;63.60
1956;DHT22;978;48.314;11.562;2023-03-21T05:02:11;20.20;63.70
1956;DHT22;978;48.314;11.562;2023-03-21T05:04:37;20.10;63.60
1956;DHT22;978;48.314;11.562;2023-03-21T05:07:05;20.20;63.70
1956;DHT22;978;48.314;11.562;2023-03-21T05:09:31;20.10;63.60
1956;DHT22;978;48.314;11.562;2023-03-21T05:11:58;20.10;63.60
1956;DHT22;978;48.314;11.562;2023-03-21T05:14:25;20.10;63.60
1956;DHT22;978;48.314;11.562;2023-03-21T05:16:53;20.10;63.60
1956;DHT22;978;48.314;11.562;2023-03-21T05:19:24;20.10;63.60
1956;DHT22;978;48.314;11.562;2023-03-21T05:22:00;20.10;63.60
1956;DHT22;978;48.314;11.562;2023-03-21T05:24:29;20.20;63.70
1956;DHT22;978;48.314;11.562;2023-03-21T05:26:57;20.10;63.60
1956;DHT22;978;48.314;11.562;2023-03-21T05:29:27;20.10;63.60
1956;DHT22;978;48.314;11.562;2023-03-21T05:31:54;20.20;63.70
1956;DHT22;978;48.314;11.562;2023-03-21T05:34:22;20.10;63.70
1956;DHT22;978;48.314;11.562;2023-03-21T05:36:49;20.10;63.70
1956;DHT22;978;48.314;11.562;2023-03-21T05:39:16;20.20;63.70
1956;DHT22;978;48.314;11.562;2023-03-21T05:41:43;20.20;63.70
1956;DHT22;978;48.314;11.562;2023-03-21T05:44:10;20.10;63.70
1956;DHT22;978;48.314;11.562;2023-03-21T05:46:37;20.10;63.70
1956;DHT22;978;48.314;11.562;2023-03-21T05:49:03;20.10;63.70
1956;DHT22;978;48.314;11.562;2023-03-21T05:51:31;20.10;63.70
1956;DHT22;978;48.314;11.562;2023-03-21T05:53:58;20.10;63.70
1956;DHT22;978;48.314;11.562;2023-03-21T05:56:25;20.10;63.70
1956;DHT22;978;48.314;11.562;2023-03-21T05:58:51;20.20;63.80
1956;DHT22;978;48.314;11.562;2023-03-21T06:01:18;20.10;63.70
1956;DHT22;978;48.314;11.562;2023-03-21T06:03:45;20.20;63.70
1956;DHT22;978;48.314;11.562;2023-03-21T06:06:12;20.20;63.70
1956;DHT22;978;48.314;11.562;2023-03-21T06:08:40;20.20;63.80
1956;DHT22;978;48.314;11.562;2023-03-21T06:11:13;20.10;63.70
1956;DHT22;978;48.314;11.562;2023-03-21T06:13:45;20.10;63.90
1956;DHT22;978;48.314;11.562;2023-03-21T06:16:11;20.20;63.80
1956;DHT22;978;48.314;11.562;2023-03-21T06:18:38;20.10;63.70
1956;DHT22;978;48.314;11.562;2023-03-21T06:21:05;20.10;63.70
1956;DHT22;978;48.314;11.562;2023-03-21T06:23:32;20.10;63.80
1956;DHT22;978;48.314;11.562;2023-03-21T06:26:00;20.10;63.80
1956;DHT22;978;48.314;11.562;2023-03-21T06:28:27;20.20;63.80
1956;DHT22;978;48.314;11.562;2023-03-21T06:30:53;20.20;63.90
1956;DHT22;978;48.314;11.562;2023-03-21T06:33:20;20.10;63.80
1956;DHT22;978;48.314;11.562;2023-03-21T06:35:50;20.20;63.80
1956;DHT22;978;48.314;11.562;2023-03-21T06:38:17;20.10;63.80
1956;DHT22;978;48.314;11.562;2023-03-21T06:40:44;20.20;63.90
1956;DHT22;978;48.314;11.562;2023-03-21T06:43:12;20.10;63.80
1956;DHT22;978;48.314;11.562;2023-03-21T06:45:40;20.20;63.80
1956;DHT22;978;48.314;11.562;2023-03-21T06:48:07;20.10;63.80
1956;DHT22;978;48.314;11.562;2023-03-21T06:50:34;20.20;63.80
1956;DHT22;978;48.314;11.562;2023-03-21T06:53:01;20.10;63.80
1956;DHT22;978;48.314;11.562;2023-03-21T06:55:28;20.10;63.80
1956;DHT22;978;48.314;11.562;2023-03-21T06:57:55;20.10;63.80
1956;DHT22;978;48.314;11.562;2023-03-21T07:00:24;20.10;63.80
1956;DHT22;978;48.314;11.562;2023-03-21T07:02:51;20.10;63.80
1956;DHT22;978;48.314;11.562;2023-03-21T07:05:18;20.10;63.80
1956;DHT22;978;48.314;11.562;2023-03-21T07:07:44;20.10;63.80
1956;DHT22;978;48.314;11.562;2023-03-21T07:10:11;20.10;63.90
1956;DHT22;978;48.314;11.562;2023-03-21T07:12:38;20.10;63.90
1956;DHT22;978;48.314;11.562;2023-03-21T07:15:06;20.10;63.90
1956;DHT22;978;48.314;11.562;2023-03-21T07:17:35;20.10;63.90
1956;DHT22;978;48.314;11.562;2023-03-21T07:20:02;20.10;63.90
1956;DHT22;978;48.314;11.562;2023-03-21T07:22:31;20.10;63.90
1956;DHT22;978;48.314;11.562;2023-03-21T07:24:57;20.20;64.00
1956;DHT22;978;48.314;11.562;2023-03-21T07:27:24;20.20;64.00
1956;DHT22;978;48.314;11.562;2023-03-21T07:29:51;20.10;63.90
1956;DHT22;978;48.314;11.562;2023-03-21T07:32:18;20.20;64.00
1956;DHT22;978;48.314;11.562;2023-03-21T07:34:46;20.10;64.00
1956;DHT22;978;48.314;11.562;2023-03-21T07:37:12;20.10;64.00
1956;DHT22;978;48.314;11.562;2023-03-21T07:39:41;20.10;64.00
1956;DHT22;978;48.314;11.562;2023-03-21T07:42:08;20.20;64.00
1956;DHT22;978;48.314;11.562;2023-03-21T07:44:36;20.10;64.00
1956;DHT22;978;48.314;11.562;2023-03-21T07:47:03;20.10;64.00
1956;DHT22;978;48.314;11.562;2023-03-21T07:49:29;20.10;64.00
1956;DHT22;978;48.314;11.562;2023-03-21T07:51:57;20.20;64.00
1956;DHT22;978;48.314;11.562;2023-03-21T07:54:26;20.10;64.00
1956;DHT22;978;48.314;11.562;2023-03-21T07:56:53;20.10;64.00
1956;DHT22;978;48.314;11.562;2023-03-21T07:59:20;20.10;64.10
1956;DHT22;978;48.314;11.562;2023-03-21T08:01:46;20.20;64.10
1956;DHT22;978;48.314;11.562;2023-03-21T08:04:13;20.10;64.10
1956;DHT22;978;48.314;11.562;2023-03-21T08:06:40;20.10;64.00
1956;DHT22;978;48.314;11.562;2023-03-21T08:09:08;20.20;64.10
1956;DHT22;978;48.314;11.562;2023-03-21T08:11:35;20.10;64.10
1956;DHT22;978;48.314;11.562;2023-03-21T08:14:02;20.10;64.10
1956;DHT22;978;48.314;11.562;2023-03-21T08:16:28;20.10;64.10
1956;DHT22;978;48.314;11.562;2023-03-21T08:18:55;20.20;64.10
1956;DHT22;978;48.314;11.562;2023-03-21T08:21:22;20.10;64.10
1956;DHT22;978;48.314;11.562;2023-03-21T08:23:49;20.20;64.10
1956;DHT22;978;48.314;11.562;2023-03-21T08:26:18;20.10;64.10
1956;DHT22;978;48.314;11.562;2023-03-21T08:28:46;20.20;64.10
1956;DHT22;978;48.314;11.562;2023-03-21T08:31:13;20.10;64.10
1956;DHT22;978;48.314;11.562;2023-03-21T08:33:39;20.10;64.10
1956;DHT22;978;48.314;11.562;2023-03-21T08:36:07;20.10;64.10
1956;DHT22;978;48.314;11.562;2023-03-21T08:38:34;20.20;64.20
1956;DHT22;978;48.314;11.562;2023-03-21T08:41:01;20.10;64.10
1956;DHT22;978;48.314;11.562;2023-03-21T08:43:30;20.10;64.10
1956;DHT22;978;48.314;11.562;2023-03-21T08:45:57;20.20;64.20
1956;DHT22;978;48.314;11.562;2023-03-21T08:48:23;20.10;64.20
1956;DHT22;978;48.314;11.562;2023-03-21T08:50:50;20.10;64.20
1956;DHT22;978;48.314;11.562;2023-03-21T08:53:17;20.20;64.20
1956;DHT22;978;48.314;11.562;2023-03-21T08:55:43;20.20;64.20
1956;DHT22;978;48.314;11.562;2023-03-21T08:58:10;20.10;64.10
1956;DHT22;978;48.314;11.562;2023-03-21T09:00:38;20.10;64.10
1956;DHT22;978;48.314;11.562;2023-03-21T09:03:05;20.10;64.10
1956;DHT22;978;48.314;11.562;2023-03-21T09:05:32;20.10;64.10
1956;DHT22;978;48.314;11.562;2023-03-21T09:07:58;20.10;64.10
1956;DHT22;978;48.314;11.562;2023-03-21T09:10:28;20.10;64.10
1956;DHT22;978;48.314;11.562;2023-03-21T09:12:55;20.10;64.40
1956;DHT22;978;48.314;11.562;2023-03-21T09:15:25;20.10;64.10
1956;DHT22;978;48.314;11.562;2023-03-21T09:17:55;20.10;64.10
1956;DHT22;978;48.314;11.562;2023-03-21T09:20:24;20.20;64.20
1956;DHT22;978;48.314;11.562;2023-03-21T09:22:55;20.20;64.20
1956;DHT22;978;48.314;11.562;2023-03-21T09:25:22;20.10;64.10
1956;DHT22;978;48.314;11.562;2023-03-21T09:27:50;20.10;64.10
1956;DHT22;978;48.314;11.562;2023-03-21T09:30:18;20.10;64.10
1956;DHT22;978;48.314;11.562;2023-03-21T09:32:45;20.20;64.10
1956;DHT22;978;48.314;11.562;2023-03-21T09:35:15;20.20;64.10
1956;DHT22;978;48.314;11.562;2023-03-21T09:37:43;20.10;64.10
1956;DHT22;978;48.314;11.562;2023-03-21T09:40:15;20.10;64.00
1956;DHT22;978;48.314;11.562;2023-03-21T09:42:52;20.10;64.00
1956;DHT22;978;48.314;11.562;2023-03-21T09:45:27;20.20;64.00
1956;DHT22;978;48.314;11.562;2023-03-21T09:47:58;20.20;64.10
1956;DHT22;978;48.314;11.562;2023-03-21T09:50:30;20.20;64.00
1956;DHT22;978;48.314;11.562;2023-03-21T09:52:59;20.10;64.00
1956;DHT22;978;48.314;11.562;2023-03-21T09:55:32;20.20;64.00
1956;DHT22;978;48.314;11.562;2023-03-21T09:58:04;20.10;64.00
1956;DHT22;978;48.314;11.562;2023-03-21T10:00:35;20.10;64.00
1956;DHT22;978;48.314;11.562;2023-03-21T10:03:04;20.10;64.00
1956;DHT22;978;48.314;11.562;2023-03-21T10:05:38;20.20;64.00
1956;DHT22;978;48.314;11.562;2023-03-21T10:08:13;20.20;64.00
1956;DHT22;978;48.314;11.562;2023-03-21T10:10:45;20.20;64.00
1956;DHT22;978;48.314;11.562;2023-03-21T10:13:16;20.20;64.00
1956;DHT22;978;48.314;11.562;2023-03-21T10:15:43;20.10;64.00
1956;DHT22;978;48.314;11.562;2023-03-21T10:18:14;20.20;64.00
1956;DHT22;978;48.314;11.562;2023-03-21T10:20:45;20.10;63.90
1956;DHT22;978;48.314;11.562;2023-03-21T10:23:14;20.20;64.00
1956;DHT22;978;48.314;11.562;2023-03-21T10:25:44;20.10;63.90
1956;DHT22;978;48.314;11.562;2023-03-21T10:28:15;20.10;63.90
1956;DHT22;978;48.314;11.562;2023-03-21T10:30:44;20.10;63.90
1956;DHT22;978;48.314;11.562;2023-03-21T10:33:14;20.10;64.00
1956;DHT22;978;48.314;11.562;2023-03-21T10:35:45;20.10;63.90
1956;DHT22;978;48.314;11.562;2023-03-21T10:38:14;20.10;63.90
1956;DHT22;978;48.314;11.562;2023-03-21T10:40:42;20.20;64.00
1956;DHT22;978;48.314;11.562;2023-03-21T10:43:30;20.10;63.90
1956;DHT22;978;48.314;11.562;2023-03-21T10:46:05;20.10;63.90
1956;DHT22;978;48.314;11.562;2023-03-21T10:48:36;20.10;63.90
1956;DHT22;978;48.314;11.562;2023-03-21T10:51:05;20.20;64.00
1956;DHT22;978;48.314;11.562;2023-03-21T10:53:37;20.10;63.80
1956;DHT22;978;48.314;11.562;2023-03-21T10:56:07;20.20;63.90
1956;DHT22;978;48.314;11.562;2023-03-21T10:58:38;20.20;64.00
1956;DHT22;978;48.314;11.562;2023-03-21T11:01:10;20.10;64.00
1956;DHT22;978;48.314;11.562;2023-03-21T11:03:41;20.10;64.00
1956;DHT22;978;48.314;11.562;2023-03-21T11:06:14;20.20;64.10
1956;DHT22;978;48.314;11.562;2023-03-21T11:08:45;20.20;64.20
1956;DHT22;978;48.314;11.562;2023-03-21T11:11:19;20.20;64.20
1956;DHT22;978;48.314;11.562;2023-03-21T11:13:55;20.20;64.20
1956;DHT22;978;48.314;11.562;2023-03-21T11:16:24;20.20;64.30
1956;DHT22;978;48.314;11.562;2023-03-21T11:18:56;20.20;64.30
1956;DHT22;978;48.314;11.562;2023-03-21T11:21:27;20.20;64.40
1956;DHT22;978;48.314;11.562;2023-03-21T11:24:01;20.20;64.40
1956;DHT22;978;48.314;11.562;2023-03-21T11:26:30;20.20;64.40
1956;DHT22;978;48.314;11.562;2023-03-21T11:29:10;20.20;64.50
1956;DHT22;978;48.314;11.562;2023-03-21T11:31:40;20.20;64.50
1956;DHT22;978;48.314;11.562;2023-03-21T11:34:19;20.20;64.60
1956;DHT22;978;48.314;11.562;2023-03-21T11:36:50;20.20;64.60
1956;DHT22;978;48.314;11.562;2023-03-21T11:39:29;20.20;64.60
1956;DHT22;978;48.314;11.562;2023-03-21T11:41:56;20.20;64.70
1956;DHT22;978;48.314;11.562;2023-03-21T11:44:26;20.20;64.70
1956;DHT22;978;48.314;11.562;2023-03-21T11:46:53;20.20;64.70
1956;DHT22;978;48.314;11.562;2023-03-21T11:49:21;20.20;64.70
1956;DHT22;978;48.314;11.562;2023-03-21T11:51:56;20.20;64.80
1956;DHT22;978;48.314;11.562;2023-03-21T11:54:30;20.20;64.70
1956;DHT22;978;48.314;11.562;2023-03-21T11:57:01;20.20;64.90
1956;DHT22;978;48.314;11.562;2023-03-21T11:59:37;20.20;64.90
1956;DHT22;978;48.314;11.562;2023-03-21T12:02:34;20.20;64.80
1956;DHT22;978;48.314;11.562;2023-03-21T12:05:04;20.20;64.70
1956;DHT22;978;48.314;11.562;2023-03-21T12:07:46;20.10;64.60
1956;DHT22;978;48.314;11.562;2023-03-21T12:10:29;20.20;64.60
1956;DHT22;978;48.314;11.562;2023-03-21T12:13:04;20.20;64.60
1956;DHT22;978;48.314;11.562;2023-03-21T12:15:37;20.20;64.50
1956;DHT22;978;48.314;11.562;2023-03-21T12:18:12;20.20;64.50
1956;DHT22;978;48.314;11.562;2023-03-21T12:20:44;20.20;64.50
1956;DHT22;978;48.314;11.562;2023-03-21T12:23:33;20.20;64.40
1956;DHT22;978;48.314;11.562;2023-03-21T12:26:12;20.20;64.40
1956;DHT22;978;48.314;11.562;2023-03-21T12:28:49;20.20;64.40
1956;DHT22;978;48.314;11.562;2023-03-21T12:31:24;20.20;64.40
1956;DHT22;978;48.314;11.562;2023-03-21T12:34:03;20.20;64.30
1956;DHT22;978;48.314;11.562;2023-03-21T12:36:46;20.20;64.30
1956;DHT22;978;48.314;11.562;2023-03-21T12:39:26;20.20;64.30
1956;DHT22;978;48.314;11.562;2023-03-21T12:42:03;20.20;64.30
1956;DHT22;978;48.314;11.562;2023-03-21T12:44:37;20.20;64.30
1956;DHT22;978;48.314;11.562;2023-03-21T12:47:08;20.20;64.30
1956;DHT22;978;48.314;11.562;2023-03-21T12:49:39;20.20;64.30
1956;DHT22;978;48.314;11.562;2023-03-21T12:52:11;20.20;64.20
1956;DHT22;978;48.314;11.562;2023-03-21T12:54:45;20.20;64.20
1956;DHT22;978;48.314;11.562;2023-03-21T12:57:16;20.20;64.20
1956;DHT22;978;48.314;11.562;2023-03-21T12:59:48;20.20;64.20
1956;DHT22;978;48.314;11.562;2023-03-21T13:02:20;20.20;64.20
1956;DHT22;978;48.314;11.562;2023-03-21T13:04:55;20.20;64.20
1956;DHT22;978;48.314;11.562;2023-03-21T13:07:23;20.20;64.20
1956;DHT22;978;48.314;11.562;2023-03-21T13:09:52;20.20;64.20
1956;DHT22;978;48.314;11.562;2023-03-21T13:12:40;20.20;64.20
1956;DHT22;978;48.314;11.562;2023-03-21T13:15:21;20.20;64.20
1956;DHT22;978;48.314;11.562;2023-03-21T13:17:58;20.20;64.10
1956;DHT22;978;48.314;11.562;2023-03-21T13:20:34;20.20;64.10
1956;DHT22;978;48.314;11.562;2023-03-21T13:23:01;20.20;64.10
1956;DHT22;978;48.314;11.562;2023-03-21T13:25:32;20.20;64.10
1956;DHT22;978;48.314;11.562;2023-03-21T13:28:04;20.20;64.10
1956;DHT22;978;48.314;11.562;2023-03-21T13:30:31;20.20;64.10
1956;DHT22;978;48.314;11.562;2023-03-21T13:33:04;20.20;64.10
1956;DHT22;978;48.314;11.562;2023-03-21T13:35:34;20.20;64.10
1956;DHT22;978;48.314;11.562;2023-03-21T13:38:05;20.20;64.00
1956;DHT22;978;48.314;11.562;2023-03-21T13:40:40;20.20;64.00
1956;DHT22;978;48.314;11.562;2023-03-21T13:43:34;20.20;64.00
1956;DHT22;978;48.314;11.562;2023-03-21T13:46:06;20.20;64.00
1956;DHT22;978;48.314;11.562;2023-03-21T13:48:42;20.20;64.00
1956;DHT22;978;48.314;11.562;2023-03-21T13:51:09;20.20;64.00
1956;DHT22;978;48.314;11.562;2023-03-21T13:53:36;20.20;64.00
1956;DHT22;978;48.314;11.562;2023-03-21T13:56:21;20.20;64.00
1956;DHT22;978;48.314;11.562;2023-03-21T13:59:00;20.20;64.60
1956;DHT22;978;48.314;11.562;2023-03-21T14:01:35;20.20;64.00
1956;DHT22;978;48.314;11.562;2023-03-21T14:04:12;20.20;64.00
1956;DHT22;978;48.314;11.562;2023-03-21T14:06:44;20.10;64.50
1956;DHT22;978;48.314;11.562;2023-03-21T14:09:19;20.20;64.00
1956;DHT22;978;48.314;11.562;2023-03-21T14:11:49;20.10;63.90
1956;DHT22;978;48.314;11.562;2023-03-21T14:14:19;20.20;64.00
1956;DHT22;978;48.314;11.562;2023-03-21T14:16:46;20.20;63.90
1956;DHT22;978;48.314;11.562;2023-03-21T14:19:13;20.20;63.90
1956;DHT22;978;48.314;11.562;2023-03-21T14:21:46;20.20;63.90
1956;DHT22;978;48.314;11.562;2023-03-21T14:24:16;20.20;63.90
1956;DHT22;978;48.314;11.562;2023-03-21T14:26:44;20.20;63.90
1956;DHT22;978;48.314;11.562;2023-03-21T14:29:19;20.20;63.90
1956;DHT22;978;48.314;11.562;2023-03-21T14:31:46;20.20;63.90
1956;DHT22;978;48.314;11.562;2023-03-21T14:34:14;20.20;63.80
1956;DHT22;978;48.314;11.562;2023-03-21T14:36:42;20.20;63.80
1956;DHT22;978;48.314;11.562;2023-03-21T14:39:13;20.10;63.80
1956;DHT22;978;48.314;11.562;2023-03-21T14:41:44;20.20;63.80
1956;DHT22;978;48.314;11.562;2023-03-21T14:44:16;20.20;63.80
1956;DHT22;978;48.314;11.562;2023-03-21T14:46:47;20.20;63.80
1956;DHT22;978;48.314;11.562;2023-03-21T14:49:19;20.20;63.80
1956;DHT22;978;48.314;11.562;2023-03-21T14:51:47;20.20;63.90
1956;DHT22;978;48.314;11.562;2023-03-21T14:54:16;20.20;63.80
1956;DHT22;978;48.314;11.562;2023-03-21T14:56:46;20.20;63.80
1956;DHT22;978;48.314;11.562;2023-03-21T14:59:16;20.20;63.80
1956;DHT22;978;48.314;11.562;2023-03-21T15:01:45;20.20;63.80
1956;DHT22;978;48.314;11.562;2023-03-21T15:04:13;20.20;63.80
1956;DHT22;978;48.314;11.562;2023-03-21T15:06:52;20.20;63.80
1956;DHT22;978;48.314;11.562;2023-03-21T15:09:21;20.20;63.80
1956;DHT22;978;48.314;11.562;2023-03-21T15:11:50;20.20;63.80
1956;DHT22;978;48.314;11.562;2023-03-21T15:14:24;20.10;63.80
1956;DHT22;978;48.314;11.562;2023-03-21T15:16:52;20.20;63.80
1956;DHT22;978;48.314;11.562;2023-03-21T15:19:25;20.10;63.80
1956;DHT22;978;48.314;11.562;2023-03-21T15:21:57;20.20;63.80
1956;DHT22;978;48.314;11.562;2023-03-21T15:24:27;20.20;63.80
1956;DHT22;978;48.314;11.562;2023-03-21T15:26:58;20.20;63.80
1956;DHT22;978;48.314;11.562;2023-03-21T15:29:27;20.20;63.80
1956;DHT22;978;48.314;11.562;2023-03-21T15:31:55;20.20;63.80
1956;DHT22;978;48.314;11.562;2023-03-21T15:34:23;20.20;63.70
1956;DHT22;978;48.314;11.562;2023-03-21T15:36:55;20.10;63.70
1956;DHT22;978;48.314;11.562;2023-03-21T15:39:22;20.20;63.80
1956;DHT22;978;48.314;11.562;2023-03-21T15:42:02;20.20;63.80
1956;DHT22;978;48.314;11.562;2023-03-21T15:44:32;20.20;63.70
1956;DHT22;978;48.314;11.562;2023-03-21T15:46:59;20.10;63.60
1956;DHT22;978;48.314;11.562;2023-03-21T15:49:28;20.10;63.50
1956;DHT22;978;48.314;11.562;2023-03-21T15:52:04;20.10;63.30
1956;DHT22;978;48.314;11.562;2023-03-21T15:54:33;20.10;63.30
1956;DHT22;978;48.314;11.562;2023-03-21T15:57:13;20.10;63.20
1956;DHT22;978;48.314;11.562;2023-03-21T15:59:45;20.10;63.10
1956;DHT22;978;48.314;11.562;2023-03-21T16:02:15;20.10;62.90
1956;DHT22;978;48.314;11.562;2023-03-21T16:04:59;20.10;62.80
1956;DHT22;978;48.314;11.562;2023-03-21T16:07:26;20.10;62.50
1956;DHT22;978;48.314;11.562;2023-03-21T16:09:58;20.10;62.50
1956;DHT22;978;48.314;11.562;2023-03-21T16:12:25;20.10;62.40
1956;DHT22;978;48.314;11.562;2023-03-21T16:14:53;20.10;62.40
1956;DHT22;978;48.314;11.562;2023-03-21T16:17:31;20.10;62.80
1956;DHT22;978;48.314;11.562;2023-03-21T16:19:58;20.10;62.00
1956;DHT22;978;48.314;11.562;2023-03-21T16:22:25;20.10;62.40
1956;DHT22;978;48.314;11.562;2023-03-21T16:24:52;20.10;62.40
1956;DHT22;978;48.314;11.562;2023-03-21T16:27:20;20.10;62.50
1956;DHT22;978;48.314;11.562;2023-03-21T16:29:47;20.10;62.40
1956;DHT22;978;48.314;11.562;2023-03-21T16:32:16;20.10;62.40